Time;durP1;ratioP1;P1;durP2;ratioP2;P2;SDS_P1;SDS_P2;PMS_P1;PMS_P2;Temp;Humidity;BMP_temperature;BMP_pressure;BME280_temperature;BME280_humidity;BME280_pressure;Samples;Min_cycle;Max_cycle;Signal;HPM_P1;HPM_P2
2022/06/15 00:00:55;;;;;;;340.90;323.50;;;;;;;18.45;52.69;96792.41;5071785;28;20298;-68
2022/06/15 00:03:21;;;;;;;223.77;212.37;;;;;;;18.31;53.37;96797.53;5071430;28;20178;-68
2022/06/15 00:05:46;;;;;;;73.70;69.50;;;;;;;18.51;52.81;96791.28;5071561;28;20193;-68
2022/06/15 00:08:12;;;;;;;125.10;118.68;;;;;;;18.15;54.07;96793.41;5071875;28;20246;-67
2022/06/15 00:10:39;;;;;;;293.97;279.10;;;;;;;18.13;54.06;96788.34;5053781;28;20191;-68
2022/06/15 00:13:06;;;;;;;379.50;360.23;;;;;;;17.94;54.47;96786.63;5071270;28;20195;-68
2022/06/15 00:15:31;;;;;;;385.80;365.83;;;;;;;18.05;54.30;96777.53;5071239;28;20211;-68
2022/06/15 00:17:56;;;;;;;229.45;217.52;;;;;;;18.03;54.56;96784.97;5073617;28;20272;-68
2022/06/15 00:20:21;;;;;;;126.13;119.53;;;;;;;17.83;55.24;96780.56;5075554;28;20201;-68
2022/06/15 00:22:47;;;;;;;123.90;117.30;;;;;;;17.92;55.26;96788.75;5057218;28;20189;-68
2022/06/15 00:25:13;;;;;;;227.45;215.57;;;;;;;17.79;55.67;96788.25;5057283;28;20182;-68
2022/06/15 00:27:39;;;;;;;205.75;195.45;;;;;;;18.03;55.45;96779.66;5057110;28;20243;-68
2022/06/15 00:30:05;;;;;;;80.40;75.90;;;;;;;17.96;55.46;96790.56;5075116;28;20181;-68
2022/06/15 00:32:31;;;;;;;74.10;70.13;;;;;;;17.98;55.79;96791.09;5075037;28;20197;-68
2022/06/15 00:34:56;;;;;;;145.93;138.37;;;;;;;17.96;55.85;96793.22;5073681;28;20214;-67
2022/06/15 00:37:22;;;;;;;172.53;163.47;;;;;;;17.73;56.49;96794.66;5074954;28;20181;-68
2022/06/15 00:39:47;;;;;;;213.73;202.73;;;;;;;17.74;56.66;96790.94;5075081;28;20328;-68
2022/06/15 00:42:12;;;;;;;232.50;220.70;;;;;;;17.78;56.32;96788.53;5074261;28;20642;-68
2022/06/15 00:44:39;;;;;;;210.90;200.13;;;;;;;18.12;55.50;96785.97;5075083;28;20606;-68
2022/06/15 00:47:20;;;;;;;141.40;133.93;;;;;;;18.01;55.26;96789.75;5074759;28;20239;-68
2022/06/15 00:49:54;;;;;;;105.47;99.77;;;;;;;18.06;55.21;96782.56;5074488;28;20177;-68
2022/06/15 00:52:33;;;;;;;105.73;99.97;;;;;;;17.95;55.21;96774.91;5074291;28;20201;-68
2022/06/15 00:55:01;;;;;;;103.60;97.97;;;;;;;17.48;56.08;96775.38;5074581;28;20303;-68
2022/06/15 00:57:28;;;;;;;107.13;101.47;;;;;;;17.72;55.50;96763.13;5074662;28;20182;-68
2022/06/15 00:59:57;;;;;;;114.57;108.57;;;;;;;17.75;55.14;96759.91;5074523;28;20177;-68
2022/06/15 01:02:23;;;;;;;112.27;106.37;;;;;;;17.71;55.28;96758.88;5074233;28;20529;-68
2022/06/15 01:04:57;;;;;;;124.57;118.07;;;;;;;17.62;55.47;96758.63;5074472;28;20192;-68
2022/06/15 01:07:30;;;;;;;125.20;118.43;;;;;;;17.61;55.46;96754.41;5074479;28;20268;-69
2022/06/15 01:10:08;;;;;;;143.20;135.87;;;;;;;17.72;54.81;96758.59;5074019;28;20578;-69
2022/06/15 01:12:54;;;;;;;116.30;110.23;;;;;;;17.68;54.96;96748.81;5074163;28;20197;-68
2022/06/15 01:15:25;;;;;;;102.20;96.57;;;;;;;17.73;54.93;96741.63;5073942;28;20219;-68
2022/06/15 01:18:18;;;;;;;115.27;109.17;;;;;;;17.66;55.16;96738.50;5074100;28;20182;-68
2022/06/15 01:20:46;;;;;;;100.00;94.77;;;;;;;17.78;54.95;96744.25;5074318;28;20192;-68
2022/06/15 01:23:26;;;;;;;99.20;93.83;;;;;;;17.65;55.15;96738.75;5056141;28;20553;-69
2022/06/15 01:26:24;;;;;;;101.27;95.63;;;;;;;17.76;55.12;96724.41;5074466;28;20184;-68
2022/06/15 01:29:08;;;;;;;101.27;95.80;;;;;;;17.69;55.29;96726.53;5073704;28;20196;-68
2022/06/15 01:31:43;;;;;;;111.20;105.03;;;;;;;17.67;55.38;96720.72;5074355;28;20254;-68
2022/06/15 01:34:30;;;;;;;130.03;123.27;;;;;;;17.50;56.16;96723.66;5071878;28;20572;-69
2022/06/15 01:36:58;;;;;;;156.77;148.70;;;;;;;17.53;56.16;96725.00;5073700;28;20607;-68
2022/06/15 01:39:36;;;;;;;178.57;169.47;;;;;;;17.45;56.33;96727.13;5073765;28;20221;-68
2022/06/15 01:42:16;;;;;;;221.87;210.33;;;;;;;17.45;56.41;96721.03;5073532;28;20203;-68
2022/06/15 01:44:49;;;;;;;261.60;248.13;;;;;;;17.32;56.98;96726.94;5058770;28;20280;-68
2022/06/15 01:47:19;;;;;;;324.67;307.97;;;;;;;17.21;57.58;96726.19;5073409;28;20230;-68
2022/06/15 01:50:23;;;;;;;324.10;307.60;;;;;;;17.42;57.08;96724.25;5073871;28;20254;-68
2022/06/15 01:53:00;;;;;;;283.97;269.47;;;;;;;17.44;57.11;96716.84;5073908;28;20588;-68
2022/06/15 01:55:32;;;;;;;227.40;215.70;;;;;;;17.15;58.16;96718.53;5073386;28;20192;-68
2022/06/15 01:58:03;;;;;;;194.47;184.53;;;;;;;17.08;58.05;96720.66;5073916;28;20265;-68
2022/06/15 02:00:28;;;;;;;160.50;152.23;;;;;;;16.97;58.74;96720.69;5055295;28;20561;-68
2022/06/15 02:03:06;;;;;;;145.83;138.33;;;;;;;16.92;58.77;96718.03;5073135;28;20193;-68
2022/06/15 02:05:37;;;;;;;151.83;143.93;;;;;;;16.95;58.84;96720.16;5073186;28;20248;-68
2022/06/15 02:08:26;;;;;;;178.43;169.03;;;;;;;16.97;58.81;96725.19;5052810;28;20185;-68
2022/06/15 02:11:06;;;;;;;212.40;201.40;;;;;;;16.66;59.80;96728.94;5055602;28;20209;-68
2022/06/15 02:13:37;;;;;;;279.23;264.70;;;;;;;16.66;60.27;96723.66;5065510;28;20193;-68
2022/06/15 02:16:12;;;;;;;290.37;275.37;;;;;;;16.57;60.20;96724.16;5069882;28;20587;-68
2022/06/15 02:18:39;;;;;;;347.60;329.97;;;;;;;16.58;60.36;96725.75;5073690;28;20188;-68
2022/06/15 02:21:11;;;;;;;387.47;367.73;;;;;;;16.54;60.54;96722.03;5073130;28;20625;-68
2022/06/15 02:23:39;;;;;;;451.73;428.90;;;;;;;16.65;60.19;96730.00;5073468;28;20715;-68
2022/06/15 02:26:06;;;;;;;493.10;467.80;;;;;;;16.67;60.00;96726.00;5072954;28;20284;-68
2022/06/15 02:28:37;;;;;;;554.87;526.07;;;;;;;16.66;59.68;96727.09;5073159;28;20543;-67
2022/06/15 02:31:02;;;;;;;573.50;543.53;;;;;;;16.64;59.83;96726.56;5073207;28;20180;-68
2022/06/15 02:33:31;;;;;;;630.50;596.50;;;;;;;16.61;60.35;96735.81;5070747;28;20201;-67
2022/06/15 02:35:58;;;;;;;662.50;626.13;;;;;;;16.80;59.25;96737.91;5068040;28;20188;-69
2022/06/15 02:38:26;;;;;;;670.03;633.17;;;;;;;16.75;59.39;96735.28;5072584;28;20256;-69
2022/06/15 02:40:51;;;;;;;668.70;631.60;;;;;;;16.70;59.83;96730.00;5071882;28;20193;-69
2022/06/15 02:43:25;;;;;;;712.30;671.77;;;;;;;16.98;58.27;96719.63;5072402;28;20185;-69
2022/06/15 02:45:51;;;;;;;727.37;685.37;;;;;;;16.97;58.59;96728.63;5072364;28;20193;-69
2022/06/15 02:48:17;;;;;;;757.50;712.87;;;;;;;16.95;58.33;96724.66;5072333;28;20184;-69
2022/06/15 02:50:50;;;;;;;766.03;719.57;;;;;;;16.90;58.79;96720.16;5072709;28;20200;-68
2022/06/15 02:53:19;;;;;;;764.77;716.93;;;;;;;16.85;58.89;96722.81;5072574;28;20226;-69
2022/06/15 02:55:48;;;;;;;737.50;691.43;;;;;;;16.61;60.18;96717.28;5072420;28;20173;-69
2022/06/15 02:58:25;;;;;;;712.80;667.70;;;;;;;16.67;59.60;96717.28;5072759;28;20553;-68
2022/06/15 03:00:51;;;;;;;686.23;643.10;;;;;;;16.77;59.31;96722.59;5072637;28;20230;-67
2022/06/15 03:03:16;;;;;;;662.13;620.93;;;;;;;16.76;59.14;96719.13;5054451;28;20638;-67
2022/06/15 03:05:47;;;;;;;627.37;588.53;;;;;;;16.84;59.01;96723.06;5072176;28;20247;-68
2022/06/15 03:08:12;;;;;;;637.00;597.67;;;;;;;16.56;59.73;96717.25;5071654;28;20183;-68
2022/06/15 03:10:37;;;;;;;598.70;562.03;;;;;;;16.50;59.98;96722.81;5071866;28;20174;-68
2022/06/15 03:13:03;;;;;;;592.93;556.53;;;;;;;16.51;59.75;96724.41;5066219;28;20616;-68
2022/06/15 03:15:28;;;;;;;576.23;541.47;;;;;;;16.48;60.07;96719.66;5071892;28;20715;-68
2022/06/15 03:17:54;;;;;;;566.93;532.60;;;;;;;16.47;59.97;96720.72;5072402;28;20552;-68
2022/06/15 03:20:19;;;;;;;434.37;409.27;;;;;;;16.44;60.12;96721.25;5072455;28;20185;-68
2022/06/15 03:22:45;;;;;;;291.33;275.43;;;;;;;16.37;60.68;96718.06;5054401;28;20277;-68
2022/06/15 03:25:11;;;;;;;162.53;153.80;;;;;;;16.36;60.90;96724.41;5037160;28;20187;-68
2022/06/15 03:27:36;;;;;;;123.43;116.57;;;;;;;16.31;61.17;96714.63;5071948;28;20657;-69
2022/06/15 03:30:06;;;;;;;138.80;131.37;;;;;;;16.22;61.55;96718.84;5072217;28;20197;-68
2022/06/15 03:32:31;;;;;;;171.63;162.67;;;;;;;16.36;61.35;96714.63;5071951;28;20200;-68
2022/06/15 03:34:57;;;;;;;221.67;209.60;;;;;;;16.38;61.22;96715.16;5070525;28;20597;-68
2022/06/15 03:37:22;;;;;;;484.77;453.83;;;;;;;16.51;61.55;96719.13;5071996;28;20178;-68
2022/06/15 03:39:48;;;;;;;719.47;671.60;;;;;;;16.74;60.31;96710.66;5071910;28;20676;-69
2022/06/15 03:42:17;;;;;;;310.27;292.60;;;;;;;17.21;58.83;96717.44;5071626;28;20185;-67
2022/06/15 03:44:44;;;;;;;139.77;132.17;;;;;;;17.22;58.70;96711.09;5071948;28;20265;-68
2022/06/15 03:47:13;;;;;;;56.50;53.20;;;;;;;17.42;58.29;96711.00;5071935;28;20318;-68
2022/06/15 03:49:39;;;;;;;199.80;189.80;;;;;;;17.80;56.43;96706.88;5071751;28;20181;-68
2022/06/15 03:52:05;;;;;;;172.27;163.63;;;;;;;17.76;56.66;96711.94;5074241;28;20545;-68
2022/06/15 03:54:31;;;;;;;130.13;123.07;;;;;;;17.92;56.36;96706.53;5057065;28;20810;-69
2022/06/15 03:56:56;;;;;;;86.93;82.25;;;;;;;17.90;56.42;96711.31;5075926;28;20193;-68
2022/06/15 03:59:22;;;;;;;71.47;67.60;;;;;;;18.34;55.62;96716.56;5075724;28;20187;-68
2022/06/15 04:01:47;;;;;;;94.38;89.47;;;;;;;18.42;55.54;96708.81;5075726;28;20184;-68
2022/06/15 04:04:13;;;;;;;70.03;65.90;;;;;;;18.85;55.11;96707.13;5075599;28;20188;-68
2022/06/15 04:06:38;;;;;;;65.50;61.90;;;;;;;18.59;55.34;96706.59;5075658;28;20178;-68
2022/06/15 04:09:04;;;;;;;60.65;57.22;;;;;;;18.69;55.48;96709.13;5075735;28;20207;-68
2022/06/15 04:14:13;;;;;;;90.07;85.20;;;;;;;19.57;52.99;96715.13;5070977;28;20211;-68
2022/06/15 04:16:39;;;;;;;276.08;261.35;;;;;;;19.39;53.55;96712.09;5075621;28;20271;-68
2022/06/15 04:19:07;;;;;;;561.65;525.70;;;;;;;19.65;52.50;96719.81;5075504;28;20185;-68
2022/06/15 04:21:32;;;;;;;766.20;713.47;;;;;;;19.76;51.97;96714.06;5075496;28;20212;-68
2022/06/15 04:23:58;;;;;;;558.65;521.35;;;;;;;20.04;51.76;96704.38;5075458;28;20213;-68
2022/06/15 04:26:23;;;;;;;595.65;557.05;;;;;;;19.88;52.29;96714.44;5075194;28;20499;-68
2022/06/15 04:28:49;;;;;;;711.78;665.55;;;;;;;19.83;52.28;96714.53;5075259;28;20218;-68
2022/06/15 04:31:14;;;;;;;675.13;634.10;;;;;;;19.60;52.81;96726.00;5075257;28;20185;-69
2022/06/15 04:33:40;;;;;;;654.97;617.13;;;;;;;19.86;52.13;96721.13;5055100;28;20237;-68
2022/06/15 04:36:06;;;;;;;658.78;621.95;;;;;;;20.65;51.04;96714.88;5075029;28;20186;-69
2022/06/15 04:38:31;;;;;;;661.70;625.42;;;;;;;21.29;48.82;96725.78;5074868;28;20224;-69
2022/06/15 04:40:57;;;;;;;650.10;614.45;;;;;;;20.39;50.86;96732.38;5056343;28;20189;-69
2022/06/15 04:43:22;;;;;;;508.50;480.90;;;;;;;20.54;50.80;96728.66;5074992;28;20189;-69
2022/06/15 04:45:47;;;;;;;345.67;326.60;;;;;;;20.15;51.68;96735.09;5074897;28;20235;-69
2022/06/15 04:48:14;;;;;;;296.60;280.75;;;;;;;20.06;52.30;96731.47;5074883;28;20198;-69
2022/06/15 04:50:39;;;;;;;310.15;294.27;;;;;;;20.61;50.71;96729.88;5074718;28;20638;-69
2022/06/15 04:53:05;;;;;;;316.33;300.52;;;;;;;21.55;48.31;96732.97;5074797;28;20215;-69
2022/06/15 04:55:32;;;;;;;305.17;289.90;;;;;;;21.55;48.32;96732.97;5056888;28;20255;-69
2022/06/15 04:57:59;;;;;;;280.20;265.95;;;;;;;20.89;48.95;96736.06;5074979;28;20217;-69
2022/06/15 05:00:27;;;;;;;200.82;190.80;;;;;;;21.23;49.10;96732.28;5074605;28;20235;-69
2022/06/15 05:02:52;;;;;;;231.73;220.18;;;;;;;20.62;50.03;96734.09;5073958;28;20276;-69
2022/06/15 05:05:18;;;;;;;250.88;238.25;;;;;;;21.37;48.93;96731.19;5074701;28;20690;-69
2022/06/15 05:07:45;;;;;;;247.98;235.65;;;;;;;19.85;52.00;96746.13;5074398;28;20272;-68
2022/06/15 05:10:14;;;;;;;205.60;195.23;;;;;;;19.63;52.66;96748.56;5074174;28;20661;-69
2022/06/15 05:12:39;;;;;;;254.88;241.95;;;;;;;20.77;50.05;96730.41;5073451;28;20600;-69
2022/06/15 05:15:05;;;;;;;247.25;234.23;;;;;;;21.27;48.44;96731.38;5074238;28;20193;-69
2022/06/15 05:17:30;;;;;;;251.00;238.45;;;;;;;21.97;46.91;96737.16;5074278;28;20543;-69
2022/06/15 05:19:56;;;;;;;265.95;252.90;;;;;;;21.27;48.58;96730.59;5073979;28;20264;-69
2022/06/15 05:22:21;;;;;;;207.52;197.45;;;;;;;21.94;47.62;96740.44;5074255;28;20189;-70
2022/06/15 05:24:47;;;;;;;241.45;229.68;;;;;;;21.19;49.12;96734.72;5074105;28;20256;-69
2022/06/15 05:27:12;;;;;;;238.88;227.18;;;;;;;20.97;49.55;96743.38;5074187;28;20190;-69
2022/06/15 05:29:38;;;;;;;186.50;177.45;;;;;;;21.55;48.25;96740.19;5073910;28;20177;-68
2022/06/15 05:32:05;;;;;;;186.68;177.65;;;;;;;20.31;51.43;96749.78;5072131;28;20186;-68
2022/06/15 05:34:30;;;;;;;146.55;139.30;;;;;;;21.32;49.87;96751.81;5074171;28;20181;-69
2022/06/15 05:36:56;;;;;;;171.38;162.68;;;;;;;20.93;50.25;96745.03;5073963;28;20329;-68
2022/06/15 05:39:21;;;;;;;135.32;128.48;;;;;;;22.08;48.45;96740.41;5074032;28;20229;-68
2022/06/15 05:41:49;;;;;;;156.20;148.35;;;;;;;21.32;49.96;96736.63;5073071;28;20205;-68
2022/06/15 05:44:21;;;;;;;129.50;121.93;;;;;;;22.32;47.78;96735.59;5074012;28;20237;-69
2022/06/15 05:46:46;;;;;;;117.53;111.18;;;;;;;22.43;47.85;96738.81;5073771;28;20173;-68
2022/06/15 05:49:12;;;;;;;129.10;122.18;;;;;;;22.39;48.19;96737.84;5073654;28;20184;-68
2022/06/15 05:51:38;;;;;;;114.05;107.97;;;;;;;22.90;47.71;96739.31;5073199;28;20640;-68
2022/06/15 05:54:05;;;;;;;96.43;91.07;;;;;;;23.47;45.83;96735.63;5073592;28;20228;-68
2022/06/15 05:56:33;;;;;;;94.72;89.70;;;;;;;23.82;44.86;96741.06;5074001;28;20238;-68
2022/06/15 05:58:59;;;;;;;79.10;74.72;;;;;;;23.74;45.44;96733.84;5073076;28;20200;-68
2022/06/15 06:01:27;;;;;;;84.82;80.22;;;;;;;23.29;47.03;96735.88;5073631;28;20178;-68
2022/06/15 06:03:53;;;;;;;76.13;72.07;;;;;;;23.58;46.09;96736.91;5073518;28;20214;-68
2022/06/15 06:06:19;;;;;;;275.13;261.58;;;;;;;23.68;44.95;96732.41;5073517;28;20623;-69
2022/06/15 06:08:44;;;;;;;184.73;175.63;;;;;;;23.64;44.20;96737.56;5073112;28;20192;-69
2022/06/15 06:11:10;;;;;;;166.85;158.82;;;;;;;23.55;44.09;96728.75;5072670;28;20658;-69
2022/06/15 06:13:35;;;;;;;157.60;149.88;;;;;;;23.70;43.68;96732.84;5072332;28;20304;-69
2022/06/15 06:16:01;;;;;;;191.48;182.15;;;;;;;23.51;44.88;96733.94;5054141;28;20205;-69
2022/06/15 06:18:26;;;;;;;142.55;135.70;;;;;;;23.81;43.90;96739.50;5073035;28;20276;-68
2022/06/15 06:20:52;;;;;;;172.00;163.63;;;;;;;23.91;43.55;96731.94;5073071;28;20541;-69
2022/06/15 06:23:18;;;;;;;119.88;113.60;;;;;;;24.07;43.71;96734.19;5072344;28;20276;-69
2022/06/15 06:25:47;;;;;;;171.32;162.93;;;;;;;24.08;44.14;96735.75;5072670;28;20721;-69
2022/06/15 06:28:25;;;;;;;186.20;176.93;;;;;;;24.16;43.88;96734.97;5055125;28;20189;-69
2022/06/15 06:30:50;;;;;;;285.38;271.25;;;;;;;24.15;44.94;96736.06;5072629;28;20185;-70
2022/06/15 06:33:16;;;;;;;534.47;505.85;;;;;;;24.28;44.98;96737.84;5070144;28;20220;-70
2022/06/15 06:35:41;;;;;;;446.08;421.73;;;;;;;24.12;45.28;96736.72;5072550;28;20185;-69
2022/06/15 06:38:07;;;;;;;490.25;464.10;;;;;;;24.30;44.92;96723.03;5071820;28;20228;-69
2022/06/15 06:40:32;;;;;;;232.27;220.65;;;;;;;23.97;43.79;96735.25;5069716;28;20258;-69
2022/06/15 06:42:58;;;;;;;294.05;279.08;;;;;;;23.99;44.56;96735.75;5070664;28;20185;-70
2022/06/15 06:45:23;;;;;;;441.58;419.63;;;;;;;24.37;44.38;96734.06;5072173;28;20174;-69
2022/06/15 06:47:48;;;;;;;286.67;272.33;;;;;;;24.24;43.94;96744.94;5071840;28;20185;-69
2022/06/15 06:50:14;;;;;;;145.32;137.88;;;;;;;24.44;42.99;96736.25;5069973;28;20193;-69
2022/06/15 06:52:40;;;;;;;118.78;112.85;;;;;;;24.73;41.69;96740.97;5071154;28;20204;-69
2022/06/15 06:55:06;;;;;;;190.07;180.50;;;;;;;24.22;43.38;96747.16;5071794;28;20188;-69
2022/06/15 06:57:31;;;;;;;272.83;258.40;;;;;;;24.60;42.12;96740.03;5071813;28;20178;-69
2022/06/15 06:59:56;;;;;;;397.67;375.88;;;;;;;24.44;42.25;96736.25;5054104;28;20186;-70
2022/06/15 07:02:22;;;;;;;189.23;179.68;;;;;;;24.13;43.19;96736.38;5054026;28;20551;-69
2022/06/15 07:04:47;;;;;;;81.65;77.35;;;;;;;24.58;42.46;96736.88;5072084;28;20189;-69
2022/06/15 07:07:13;;;;;;;93.40;88.63;;;;;;;24.78;42.29;96744.25;5070195;28;20193;-69
2022/06/15 07:09:38;;;;;;;116.38;110.32;;;;;;;24.87;42.81;96741.56;5054085;28;20268;-70
2022/06/15 07:12:04;;;;;;;128.60;122.20;;;;;;;24.84;42.97;96743.00;5066200;28;20197;-69
2022/06/15 07:14:30;;;;;;;203.60;193.52;;;;;;;24.86;42.15;96738.09;5070479;28;20253;-70
2022/06/15 07:16:55;;;;;;;155.82;147.73;;;;;;;24.82;42.48;96739.03;5071154;28;20272;-69
2022/06/15 07:19:21;;;;;;;137.38;130.35;;;;;;;24.69;43.08;96742.69;5053209;28;20299;-69
2022/06/15 07:21:46;;;;;;;109.85;104.07;;;;;;;24.68;43.22;96741.91;5071183;28;20177;-69
2022/06/15 07:24:11;;;;;;;125.13;118.82;;;;;;;24.67;43.39;96739.56;5070927;28;20193;-68
2022/06/15 07:26:42;;;;;;;120.90;114.63;;;;;;;24.69;42.65;96743.47;5070683;28;20189;-68
2022/06/15 07:29:09;;;;;;;114.82;109.03;;;;;;;24.96;42.28;96739.69;5070908;28;20196;-69
2022/06/15 07:31:38;;;;;;;196.98;187.05;;;;;;;24.57;43.67;96740.69;5069434;28;20249;-69
2022/06/15 07:34:04;;;;;;;224.52;213.25;;;;;;;24.61;43.47;96743.50;5071109;28;20286;-69
2022/06/15 07:36:30;;;;;;;235.23;223.35;;;;;;;24.61;43.14;96746.97;5071008;28;20529;-69
2022/06/15 07:38:57;;;;;;;227.13;215.50;;;;;;;25.00;42.55;96753.22;5070256;28;20232;-69
2022/06/15 07:41:25;;;;;;;331.27;314.55;;;;;;;25.17;42.80;96747.81;5070079;28;20195;-69
2022/06/15 07:43:51;;;;;;;534.00;506.38;;;;;;;24.81;44.11;96748.97;5071307;28;20188;-69
2022/06/15 07:46:17;;;;;;;564.97;534.55;;;;;;;25.15;43.81;96744.66;5052933;28;20189;-69
2022/06/15 07:51:49;;;;;;;519.33;491.33;;;;;;;25.24;44.05;96743.50;5071229;28;20593;-69
2022/06/15 07:54:16;;;;;;;488.58;462.23;;;;;;;25.51;43.71;96736.16;5070145;28;20227;-69
2022/06/15 07:56:43;;;;;;;508.23;479.90;;;;;;;25.57;43.93;96743.75;5071260;28;20324;-68
2022/06/15 07:59:10;;;;;;;408.05;385.67;;;;;;;25.73;43.70;96749.34;5071658;28;20181;-69
2022/06/15 08:01:35;;;;;;;515.70;486.48;;;;;;;25.70;43.91;96743.81;5071986;28;20622;-69
2022/06/15 08:04:01;;;;;;;572.95;540.80;;;;;;;25.64;43.45;96746.69;5071428;28;20303;-69
2022/06/15 08:06:29;;;;;;;613.20;578.80;;;;;;;25.02;44.80;96754.47;5071522;28;20181;-69
2022/06/15 08:08:54;;;;;;;592.15;558.15;;;;;;;25.43;43.79;96753.88;5053510;28;20660;-69
2022/06/15 08:11:20;;;;;;;566.05;532.83;;;;;;;25.71;43.77;96750.75;5070341;28;20268;-69
2022/06/15 08:13:46;;;;;;;552.50;521.28;;;;;;;25.85;43.96;96751.31;5071143;28;20284;-69
2022/06/15 08:16:16;;;;;;;503.17;475.20;;;;;;;26.06;42.68;96758.28;5071246;28;20268;-69
2022/06/15 08:18:48;;;;;;;391.77;370.48;;;;;;;26.06;42.19;96754.81;5070915;28;20288;-69
2022/06/15 08:21:19;;;;;;;608.80;575.17;;;;;;;25.85;43.49;96751.31;5070882;28;20181;-69
2022/06/15 08:23:49;;;;;;;532.40;503.13;;;;;;;25.80;42.90;96754.19;5071163;28;20670;-69
2022/06/15 08:26:18;;;;;;;566.15;535.08;;;;;;;26.04;42.72;96754.34;5070972;28;20193;-69
2022/06/15 08:28:48;;;;;;;209.98;198.90;;;;;;;25.80;41.32;96746.91;5050629;28;20186;-69
2022/06/15 08:31:14;;;;;;;173.90;164.77;;;;;;;25.91;41.30;96750.81;5068914;28;20217;-69
2022/06/15 08:33:39;;;;;;;196.40;186.05;;;;;;;25.90;41.83;96749.22;5070836;28;20233;-69
2022/06/15 08:36:06;;;;;;;207.57;196.50;;;;;;;25.58;41.97;96757.91;5070317;28;20258;-70
2022/06/15 08:38:32;;;;;;;166.65;158.02;;;;;;;25.64;41.65;96749.38;5072012;28;20224;-69
2022/06/15 08:41:05;;;;;;;155.82;147.60;;;;;;;26.18;41.10;96756.78;5074411;28;20279;-69
2022/06/15 08:43:49;;;;;;;149.35;141.15;;;;;;;25.92;41.82;96752.34;5073987;28;20253;-69
2022/06/15 08:46:32;;;;;;;145.52;137.85;;;;;;;25.92;42.09;96751.56;5075308;28;20204;-69
2022/06/15 08:49:16;;;;;;;154.30;146.27;;;;;;;25.16;43.30;96752.41;5074883;28;20234;-69
2022/06/15 08:51:45;;;;;;;191.38;181.40;;;;;;;25.61;43.17;96754.59;5066262;28;20192;-69
2022/06/15 08:54:35;;;;;;;288.67;273.50;;;;;;;25.88;43.01;96759.50;5074412;28;20692;-69
2022/06/15 08:57:24;;;;;;;272.90;258.65;;;;;;;26.29;41.96;96756.09;5074572;28;20262;-69
2022/06/15 09:00:03;;;;;;;237.05;224.30;;;;;;;25.50;43.22;96761.41;5074237;28;20177;-69
2022/06/15 09:03:04;;;;;;;338.10;320.23;;;;;;;25.97;43.45;96760.22;5074601;28;20302;-70
2022/06/15 09:05:57;;;;;;;468.88;444.25;;;;;;;25.98;43.70;96761.00;5074587;28;20168;-69
2022/06/15 09:08:51;;;;;;;541.95;513.47;;;;;;;25.99;43.52;96759.91;5074180;28;20178;-69
2022/06/15 09:11:42;;;;;;;380.92;360.45;;;;;;;26.13;43.17;96765.84;5072481;28;20170;-68
2022/06/15 09:14:19;;;;;;;348.60;329.77;;;;;;;26.42;42.51;96767.69;5063832;28;20189;-68
2022/06/15 09:17:02;;;;;;;245.70;232.07;;;;;;;26.53;41.66;96760.78;5074263;28;20208;-69
2022/06/15 09:19:36;;;;;;;214.90;202.98;;;;;;;26.76;41.69;96755.84;5053991;28;20633;-68
2022/06/15 09:22:08;;;;;;;180.85;170.90;;;;;;;26.90;41.37;96761.75;5054221;28;20240;-68
2022/06/15 09:24:47;;;;;;;153.02;144.68;;;;;;;27.14;41.23;96767.16;5054021;28;20199;-68
2022/06/15 09:27:19;;;;;;;155.43;147.27;;;;;;;26.44;42.43;96766.25;5053945;28;20249;-69
2022/06/15 09:29:52;;;;;;;205.38;194.75;;;;;;;26.48;43.52;96764.47;5056965;28;20653;-69
2022/06/15 09:32:24;;;;;;;236.98;224.35;;;;;;;27.03;42.17;96763.34;5069353;28;20181;-69
2022/06/15 09:35:08;;;;;;;182.00;172.35;;;;;;;27.20;41.62;96763.16;5072488;28;20549;-69
2022/06/15 09:37:36;;;;;;;140.15;132.98;;;;;;;26.92;42.12;96762.19;5073305;28;20188;-69
2022/06/15 09:40:04;;;;;;;206.82;195.38;;;;;;;27.05;41.52;96763.81;5073475;28;20474;-68
2022/06/15 09:42:56;;;;;;;384.13;363.90;;;;;;;27.00;41.70;96761.31;5072686;28;20668;-68
2022/06/15 09:45:24;;;;;;;131.32;124.43;;;;;;;26.06;43.84;96766.34;5060932;28;20201;-69
2022/06/15 09:48:18;;;;;;;142.00;134.57;;;;;;;25.65;44.31;96766.25;5072887;28;20220;-69
2022/06/15 09:50:52;;;;;;;147.13;139.27;;;;;;;25.83;43.78;96764.28;5058567;28;20276;-69
2022/06/15 09:53:24;;;;;;;265.75;251.93;;;;;;;26.07;44.63;96765.25;5072633;28;20303;-69
2022/06/15 09:55:56;;;;;;;254.07;240.65;;;;;;;26.13;43.76;96757.78;5072682;28;20200;-69
2022/06/15 09:58:27;;;;;;;244.00;231.13;;;;;;;25.57;44.53;96757.16;5071638;28;20193;-70
2022/06/15 10:00:53;;;;;;;258.90;245.25;;;;;;;25.67;44.69;96756.00;5073466;28;20181;-69
2022/06/15 10:03:29;;;;;;;233.98;221.60;;;;;;;25.75;44.11;96754.34;5073227;28;20207;-69
2022/06/15 10:05:59;;;;;;;282.33;267.02;;;;;;;26.05;43.67;96755.91;5055010;28;20214;-70
2022/06/15 10:08:25;;;;;;;429.15;407.08;;;;;;;25.54;45.04;96751.59;5073172;28;20196;-69
2022/06/15 10:10:55;;;;;;;433.33;410.92;;;;;;;26.11;44.58;96753.81;5073274;28;20173;-69
2022/06/15 10:13:20;;;;;;;251.40;238.25;;;;;;;26.14;44.54;96770.06;5072609;28;20209;-69
2022/06/15 10:16:03;;;;;;;430.98;408.58;;;;;;;25.80;44.99;96759.56;5072941;28;20185;-69
2022/06/15 10:18:41;;;;;;;454.80;430.13;;;;;;;26.19;43.47;96759.16;5068970;28;20180;-69
2022/06/15 10:21:13;;;;;;;341.13;322.55;;;;;;;26.53;42.59;96758.09;5068749;28;20210;-69
2022/06/15 10:23:49;;;;;;;325.50;308.70;;;;;;;26.01;43.77;96755.78;5072593;28;20197;-69
2022/06/15 10:26:26;;;;;;;378.67;359.17;;;;;;;25.97;43.88;96749.47;5072855;28;20211;-70
2022/06/15 10:28:52;;;;;;;314.13;297.83;;;;;;;25.88;43.63;96756.03;5072862;28;20256;-69
2022/06/15 10:31:32;;;;;;;424.30;402.45;;;;;;;26.08;43.90;96755.28;5070805;28;20553;-69
2022/06/15 10:34:18;;;;;;;362.23;343.52;;;;;;;26.54;42.60;96762.38;5072320;28;20192;-70
2022/06/15 10:36:43;;;;;;;346.38;328.27;;;;;;;26.61;40.16;96756.47;5072257;28;20685;-69
2022/06/15 10:39:25;;;;;;;154.55;146.63;;;;;;;26.50;41.48;96753.38;5071404;28;20307;-69
2022/06/15 10:41:51;;;;;;;349.10;330.48;;;;;;;26.70;40.56;96757.16;5071349;28;20189;-69
2022/06/15 10:44:33;;;;;;;604.45;569.88;;;;;;;26.68;39.84;96745.97;5068695;28;20193;-69
2022/06/15 10:47:01;;;;;;;624.50;588.75;;;;;;;26.38;40.68;96751.44;5069877;28;20660;-69
2022/06/15 10:49:32;;;;;;;497.20;469.00;;;;;;;26.33;41.18;96745.47;5069621;28;20193;-68
2022/06/15 10:51:58;;;;;;;610.17;575.30;;;;;;;26.36;40.57;96737.53;5071320;28;20442;-68
2022/06/15 11:02:06;;;;;;;592.38;558.40;;;;;;;26.66;40.03;96732.84;5070754;28;20189;-69
2022/06/15 11:03:15;;;;;;;302.20;286.02;;;;;;;25.84;39.49;96728.25;5071578;28;20231;-70
2022/06/15 11:05:43;;;;;;;227.02;215.25;;;;;;;26.19;39.05;96734.19;5071992;28;20177;-69
2022/06/15 11:08:17;;;;;;;463.70;438.63;;;;;;;26.31;38.03;96731.56;5071013;28;20189;-69
2022/06/15 11:10:49;;;;;;;462.27;436.80;;;;;;;25.82;39.30;96735.84;5070782;28;20189;-69
2022/06/15 11:13:35;;;;;;;413.38;390.92;;;;;;;25.82;39.31;96728.56;5071689;28;20205;-71
2022/06/15 11:19:12;;;;;;;166.68;158.02;;;;;;;26.35;39.49;96732.50;5071864;28;20227;-69
2022/06/15 11:21:41;;;;;;;388.08;367.25;;;;;;;26.55;38.55;96718.22;5071251;28;20617;-69
2022/06/15 11:24:34;;;;;;;469.50;444.05;;;;;;;26.46;38.34;96721.00;5071740;28;20189;-69
2022/06/15 11:27:11;;;;;;;169.75;161.38;;;;;;;26.67;39.05;96712.91;5071346;28;20181;-69
2022/06/15 11:29:48;;;;;;;522.47;493.80;;;;;;;26.51;38.10;96720.03;5069572;28;20258;-72